sensor_id;sensor_type;location;lat;lon;timestamp;P1;durP1;ratioP1;P2;durP2;ratioP2
1404;SDS011;697;51.114;6.542;2023-08-20T00:00:19;8.63;;;5.90;;
1404;SDS011;697;51.114;6.542;2023-08-20T00:02:46;8.10;;;5.33;;
1404;SDS011;697;51.114;6.542;2023-08-20T00:05:21;7.53;;;6.47;;
1404;SDS011;697;51.114;6.542;2023-08-20T00:07:48;6.73;;;6.13;;
1404;SDS011;697;51.114;6.542;2023-08-20T00:10:16;7.10;;;6.40;;
1404;SDS011;697;51.114;6.542;2023-08-20T00:12:43;11.27;;;6.60;;
1404;SDS011;697;51.114;6.542;2023-08-20T00:15:10;7.37;;;6.57;;
1404;SDS011;697;51.114;6.542;2023-08-20T00:17:37;9.67;;;8.00;;
1404;SDS011;697;51.114;6.542;2023-08-20T00:20:06;6.97;;;6.37;;
1404;SDS011;697;51.114;6.542;2023-08-20T00:22:35;8.17;;;6.40;;
1404;SDS011;697;51.114;6.542;2023-08-20T00:25:03;8.27;;;6.77;;
1404;SDS011;697;51.114;6.542;2023-08-20T00:27:32;7.40;;;6.23;;
1404;SDS011;697;51.114;6.542;2023-08-20T00:29:59;10.97;;;6.67;;
1404;SDS011;697;51.114;6.542;2023-08-20T00:32:26;7.60;;;6.10;;
1404;SDS011;697;51.114;6.542;2023-08-20T00:34:52;9.83;;;6.33;;
1404;SDS011;697;51.114;6.542;2023-08-20T00:37:19;8.17;;;7.43;;
1404;SDS011;697;51.114;6.542;2023-08-20T00:39:46;6.43;;;5.83;;
1404;SDS011;697;51.114;6.542;2023-08-20T00:42:13;7.00;;;6.30;;
1404;SDS011;697;51.114;6.542;2023-08-20T00:44:41;8.27;;;6.80;;
1404;SDS011;697;51.114;6.542;2023-08-20T00:47:09;7.43;;;6.50;;
1404;SDS011;697;51.114;6.542;2023-08-20T00:49:36;10.40;;;6.33;;
1404;SDS011;697;51.114;6.542;2023-08-20T00:52:04;6.90;;;6.30;;
1404;SDS011;697;51.114;6.542;2023-08-20T00:54:33;9.67;;;7.70;;
1404;SDS011;697;51.114;6.542;2023-08-20T00:57:00;6.53;;;5.80;;
1404;SDS011;697;51.114;6.542;2023-08-20T00:59:28;7.90;;;6.40;;
1404;SDS011;697;51.114;6.542;2023-08-20T01:01:59;7.27;;;5.67;;
1404;SDS011;697;51.114;6.542;2023-08-20T01:04:27;7.70;;;5.50;;
1404;SDS011;697;51.114;6.542;2023-08-20T01:06:59;6.57;;;5.70;;
1404;SDS011;697;51.114;6.542;2023-08-20T01:09:36;10.03;;;6.40;;
1404;SDS011;697;51.114;6.542;2023-08-20T01:12:14;7.57;;;5.80;;
1404;SDS011;697;51.114;6.542;2023-08-20T01:14:43;8.27;;;5.63;;
1404;SDS011;697;51.114;6.542;2023-08-20T01:17:11;7.73;;;7.00;;
1404;SDS011;697;51.114;6.542;2023-08-20T01:19:38;9.87;;;6.57;;
1404;SDS011;697;51.114;6.542;2023-08-20T01:22:09;7.73;;;6.97;;
1404;SDS011;697;51.114;6.542;2023-08-20T01:24:51;7.87;;;7.07;;
1404;SDS011;697;51.114;6.542;2023-08-20T01:27:34;10.43;;;7.87;;
1404;SDS011;697;51.114;6.542;2023-08-20T01:30:15;8.93;;;6.50;;
1404;SDS011;697;51.114;6.542;2023-08-20T01:32:42;9.27;;;6.70;;
1404;SDS011;697;51.114;6.542;2023-08-20T01:35:11;10.90;;;7.33;;
1404;SDS011;697;51.114;6.542;2023-08-20T01:37:38;9.90;;;7.40;;
1404;SDS011;697;51.114;6.542;2023-08-20T01:40:06;8.70;;;7.90;;
1404;SDS011;697;51.114;6.542;2023-08-20T01:42:35;9.23;;;7.50;;
1404;SDS011;697;51.114;6.542;2023-08-20T01:45:02;7.70;;;6.93;;
1404;SDS011;697;51.114;6.542;2023-08-20T01:47:31;10.63;;;7.27;;
1404;SDS011;697;51.114;6.542;2023-08-20T01:49:57;7.90;;;7.17;;
1404;SDS011;697;51.114;6.542;2023-08-20T01:52:24;9.80;;;6.80;;
1404;SDS011;697;51.114;6.542;2023-08-20T01:54:51;9.47;;;7.43;;
1404;SDS011;697;51.114;6.542;2023-08-20T01:57:18;8.10;;;7.33;;
1404;SDS011;697;51.114;6.542;2023-08-20T01:59:45;13.27;;;7.77;;
1404;SDS011;697;51.114;6.542;2023-08-20T02:02:13;9.50;;;7.80;;
1404;SDS011;697;51.114;6.542;2023-08-20T02:04:41;9.03;;;8.13;;
1404;SDS011;697;51.114;6.542;2023-08-20T02:07:07;8.63;;;7.50;;
1404;SDS011;697;51.114;6.542;2023-08-20T02:09:34;8.77;;;7.13;;
1404;SDS011;697;51.114;6.542;2023-08-20T02:12:01;8.83;;;7.87;;
1404;SDS011;697;51.114;6.542;2023-08-20T02:14:27;12.87;;;8.90;;
1404;SDS011;697;51.114;6.542;2023-08-20T02:16:54;14.67;;;8.23;;
1404;SDS011;697;51.114;6.542;2023-08-20T02:19:21;12.43;;;8.47;;
1404;SDS011;697;51.114;6.542;2023-08-20T02:21:49;13.07;;;8.47;;
1404;SDS011;697;51.114;6.542;2023-08-20T02:24:16;8.93;;;7.90;;
1404;SDS011;697;51.114;6.542;2023-08-20T02:26:42;10.00;;;8.90;;
1404;SDS011;697;51.114;6.542;2023-08-20T02:29:09;11.33;;;9.93;;
1404;SDS011;697;51.114;6.542;2023-08-20T02:31:36;15.30;;;11.23;;
1404;SDS011;697;51.114;6.542;2023-08-20T02:34:02;12.20;;;10.53;;
1404;SDS011;697;51.114;6.542;2023-08-20T02:36:29;14.10;;;9.70;;
1404;SDS011;697;51.114;6.542;2023-08-20T02:38:57;14.20;;;10.53;;
1404;SDS011;697;51.114;6.542;2023-08-20T02:41:24;12.00;;;10.90;;
1404;SDS011;697;51.114;6.542;2023-08-20T02:43:51;11.83;;;10.47;;
1404;SDS011;697;51.114;6.542;2023-08-20T02:46:17;13.90;;;10.10;;
1404;SDS011;697;51.114;6.542;2023-08-20T02:48:44;13.90;;;9.90;;
1404;SDS011;697;51.114;6.542;2023-08-20T02:51:10;11.83;;;9.33;;
1404;SDS011;697;51.114;6.542;2023-08-20T02:53:37;11.77;;;9.50;;
1404;SDS011;697;51.114;6.542;2023-08-20T02:56:05;10.43;;;9.43;;
1404;SDS011;697;51.114;6.542;2023-08-20T02:58:32;16.03;;;9.80;;
1404;SDS011;697;51.114;6.542;2023-08-20T03:00:58;11.97;;;9.53;;
1404;SDS011;697;51.114;6.542;2023-08-20T03:03:25;11.27;;;10.20;;
1404;SDS011;697;51.114;6.542;2023-08-20T03:05:52;10.00;;;9.00;;
1404;SDS011;697;51.114;6.542;2023-08-20T03:08:19;11.57;;;9.53;;
1404;SDS011;697;51.114;6.542;2023-08-20T03:10:45;11.63;;;9.60;;
1404;SDS011;697;51.114;6.542;2023-08-20T03:13:13;10.63;;;9.40;;
1404;SDS011;697;51.114;6.542;2023-08-20T03:15:40;10.97;;;9.87;;
1404;SDS011;697;51.114;6.542;2023-08-20T03:18:07;10.17;;;9.27;;
1404;SDS011;697;51.114;6.542;2023-08-20T03:20:34;12.83;;;10.93;;
1404;SDS011;697;51.114;6.542;2023-08-20T03:23:00;13.43;;;10.43;;
1404;SDS011;697;51.114;6.542;2023-08-20T03:25:27;10.70;;;9.60;;
1404;SDS011;697;51.114;6.542;2023-08-20T03:27:54;13.87;;;9.57;;
1404;SDS011;697;51.114;6.542;2023-08-20T03:30:22;12.40;;;8.97;;
1404;SDS011;697;51.114;6.542;2023-08-20T03:32:48;10.97;;;9.20;;
1404;SDS011;697;51.114;6.542;2023-08-20T03:35:15;13.10;;;9.90;;
1404;SDS011;697;51.114;6.542;2023-08-20T03:37:42;11.53;;;10.43;;
1404;SDS011;697;51.114;6.542;2023-08-20T03:40:09;11.50;;;10.23;;
1404;SDS011;697;51.114;6.542;2023-08-20T03:42:36;11.93;;;10.70;;
1404;SDS011;697;51.114;6.542;2023-08-20T03:45:03;15.93;;;11.17;;
1404;SDS011;697;51.114;6.542;2023-08-20T03:47:31;13.20;;;11.20;;
1404;SDS011;697;51.114;6.542;2023-08-20T03:49:58;12.00;;;10.80;;
1404;SDS011;697;51.114;6.542;2023-08-20T03:52:25;14.07;;;11.10;;
1404;SDS011;697;51.114;6.542;2023-08-20T03:54:51;12.30;;;11.00;;
1404;SDS011;697;51.114;6.542;2023-08-20T03:57:18;11.17;;;9.97;;
1404;SDS011;697;51.114;6.542;2023-08-20T03:59:45;13.83;;;10.17;;
1404;SDS011;697;51.114;6.542;2023-08-20T04:02:12;12.93;;;10.80;;
1404;SDS011;697;51.114;6.542;2023-08-20T04:04:40;12.43;;;10.70;;
1404;SDS011;697;51.114;6.542;2023-08-20T04:07:07;13.53;;;10.10;;
1404;SDS011;697;51.114;6.542;2023-08-20T04:09:34;11.23;;;10.17;;
1404;SDS011;697;51.114;6.542;2023-08-20T04:12:01;10.50;;;9.50;;
1404;SDS011;697;51.114;6.542;2023-08-20T04:14:29;15.33;;;10.70;;
1404;SDS011;697;51.114;6.542;2023-08-20T04:16:56;17.20;;;11.47;;
1404;SDS011;697;51.114;6.542;2023-08-20T04:19:22;11.70;;;10.50;;
1404;SDS011;697;51.114;6.542;2023-08-20T04:21:51;11.13;;;10.03;;
1404;SDS011;697;51.114;6.542;2023-08-20T04:24:17;12.03;;;10.57;;
1404;SDS011;697;51.114;6.542;2023-08-20T04:26:44;14.10;;;10.70;;
1404;SDS011;697;51.114;6.542;2023-08-20T04:29:11;13.17;;;10.50;;
1404;SDS011;697;51.114;6.542;2023-08-20T04:31:37;11.20;;;9.83;;
1404;SDS011;697;51.114;6.542;2023-08-20T04:34:04;12.20;;;11.00;;
1404;SDS011;697;51.114;6.542;2023-08-20T04:36:31;11.40;;;10.30;;
1404;SDS011;697;51.114;6.542;2023-08-20T04:38:59;13.93;;;11.13;;
1404;SDS011;697;51.114;6.542;2023-08-20T04:41:25;12.00;;;10.80;;
1404;SDS011;697;51.114;6.542;2023-08-20T04:43:52;15.77;;;10.80;;
1404;SDS011;697;51.114;6.542;2023-08-20T04:46:19;12.93;;;11.70;;
1404;SDS011;697;51.114;6.542;2023-08-20T04:48:45;12.27;;;10.93;;
1404;SDS011;697;51.114;6.542;2023-08-20T04:51:12;13.57;;;10.60;;
1404;SDS011;697;51.114;6.542;2023-08-20T04:53:39;12.50;;;11.27;;
1404;SDS011;697;51.114;6.542;2023-08-20T04:56:07;15.67;;;11.17;;
1404;SDS011;697;51.114;6.542;2023-08-20T04:58:33;12.70;;;11.10;;
1404;SDS011;697;51.114;6.542;2023-08-20T05:01:00;12.70;;;11.40;;
1404;SDS011;697;51.114;6.542;2023-08-20T05:03:27;11.37;;;10.00;;
1404;SDS011;697;51.114;6.542;2023-08-20T05:05:53;11.77;;;10.50;;
1404;SDS011;697;51.114;6.542;2023-08-20T05:08:20;13.17;;;11.27;;
1404;SDS011;697;51.114;6.542;2023-08-20T05:10:47;15.67;;;11.60;;
1404;SDS011;697;51.114;6.542;2023-08-20T05:13:17;12.23;;;11.00;;
1404;SDS011;697;51.114;6.542;2023-08-20T05:15:45;12.10;;;10.80;;
1404;SDS011;697;51.114;6.542;2023-08-20T05:18:12;13.67;;;11.77;;
1404;SDS011;697;51.114;6.542;2023-08-20T05:20:39;13.53;;;12.13;;
1404;SDS011;697;51.114;6.542;2023-08-20T05:23:06;17.27;;;12.67;;
1404;SDS011;697;51.114;6.542;2023-08-20T05:25:33;11.77;;;10.67;;
1404;SDS011;697;51.114;6.542;2023-08-20T05:27:59;12.03;;;11.03;;
1404;SDS011;697;51.114;6.542;2023-08-20T05:30:27;12.83;;;11.33;;
1404;SDS011;697;51.114;6.542;2023-08-20T05:32:54;14.00;;;12.60;;
1404;SDS011;697;51.114;6.542;2023-08-20T05:35:21;14.90;;;13.40;;
1404;SDS011;697;51.114;6.542;2023-08-20T05:37:47;17.03;;;13.50;;
1404;SDS011;697;51.114;6.542;2023-08-20T05:40:14;17.90;;;13.33;;
1404;SDS011;697;51.114;6.542;2023-08-20T05:42:42;21.20;;;13.73;;
1404;SDS011;697;51.114;6.542;2023-08-20T05:45:08;17.37;;;13.13;;
1404;SDS011;697;51.114;6.542;2023-08-20T05:47:37;15.10;;;13.50;;
1404;SDS011;697;51.114;6.542;2023-08-20T05:50:04;15.47;;;13.87;;
1404;SDS011;697;51.114;6.542;2023-08-20T05:52:31;17.57;;;15.10;;
1404;SDS011;697;51.114;6.542;2023-08-20T05:54:58;19.30;;;15.10;;
1404;SDS011;697;51.114;6.542;2023-08-20T05:57:24;15.90;;;14.40;;
1404;SDS011;697;51.114;6.542;2023-08-20T05:59:51;19.20;;;14.50;;
1404;SDS011;697;51.114;6.542;2023-08-20T06:02:17;19.17;;;16.17;;
1404;SDS011;697;51.114;6.542;2023-08-20T06:04:46;18.23;;;16.43;;
1404;SDS011;697;51.114;6.542;2023-08-20T06:07:12;16.50;;;14.77;;
1404;SDS011;697;51.114;6.542;2023-08-20T06:09:39;17.90;;;16.00;;
1404;SDS011;697;51.114;6.542;2023-08-20T06:12:06;20.00;;;16.20;;
1404;SDS011;697;51.114;6.542;2023-08-20T06:14:33;18.13;;;16.03;;
1404;SDS011;697;51.114;6.542;2023-08-20T06:17:00;20.50;;;16.47;;
1404;SDS011;697;51.114;6.542;2023-08-20T06:19:27;17.53;;;15.50;;
1404;SDS011;697;51.114;6.542;2023-08-20T06:21:55;19.70;;;17.60;;
1404;SDS011;697;51.114;6.542;2023-08-20T06:24:22;17.70;;;15.77;;
1404;SDS011;697;51.114;6.542;2023-08-20T06:26:49;20.03;;;17.83;;
1404;SDS011;697;51.114;6.542;2023-08-20T06:29:16;17.20;;;15.40;;
1404;SDS011;697;51.114;6.542;2023-08-20T06:31:43;17.67;;;14.50;;
1404;SDS011;697;51.114;6.542;2023-08-20T06:34:10;15.47;;;13.67;;
1404;SDS011;697;51.114;6.542;2023-08-20T06:36:37;17.47;;;15.07;;
1404;SDS011;697;51.114;6.542;2023-08-20T06:39:05;17.43;;;15.60;;
1404;SDS011;697;51.114;6.542;2023-08-20T06:41:31;19.00;;;15.47;;
1404;SDS011;697;51.114;6.542;2023-08-20T06:43:58;15.10;;;13.57;;
1404;SDS011;697;51.114;6.542;2023-08-20T06:46:25;19.40;;;16.87;;
1404;SDS011;697;51.114;6.542;2023-08-20T06:48:51;19.13;;;15.53;;
1404;SDS011;697;51.114;6.542;2023-08-20T06:51:19;18.13;;;16.23;;
1404;SDS011;697;51.114;6.542;2023-08-20T06:53:46;18.23;;;14.80;;
1404;SDS011;697;51.114;6.542;2023-08-20T06:56:14;17.07;;;15.27;;
1404;SDS011;697;51.114;6.542;2023-08-20T06:58:42;17.60;;;15.70;;
1404;SDS011;697;51.114;6.542;2023-08-20T07:01:09;17.80;;;14.83;;
1404;SDS011;697;51.114;6.542;2023-08-20T07:03:38;17.90;;;16.10;;
1404;SDS011;697;51.114;6.542;2023-08-20T07:06:06;16.83;;;15.10;;
1404;SDS011;697;51.114;6.542;2023-08-20T07:08:34;17.10;;;14.67;;
1404;SDS011;697;51.114;6.542;2023-08-20T07:11:01;16.37;;;14.00;;
1404;SDS011;697;51.114;6.542;2023-08-20T07:13:29;15.27;;;13.67;;
1404;SDS011;697;51.114;6.542;2023-08-20T07:15:56;13.43;;;12.03;;
1404;SDS011;697;51.114;6.542;2023-08-20T07:18:22;16.73;;;14.87;;
1404;SDS011;697;51.114;6.542;2023-08-20T07:20:49;15.87;;;12.43;;
1404;SDS011;697;51.114;6.542;2023-08-20T07:23:16;13.47;;;11.27;;
1404;SDS011;697;51.114;6.542;2023-08-20T07:25:43;12.47;;;11.37;;
1404;SDS011;697;51.114;6.542;2023-08-20T07:28:10;14.30;;;10.40;;
1404;SDS011;697;51.114;6.542;2023-08-20T07:30:38;15.17;;;10.60;;
1404;SDS011;697;51.114;6.542;2023-08-20T07:33:05;16.47;;;13.37;;
1404;SDS011;697;51.114;6.542;2023-08-20T07:35:33;21.27;;;12.73;;
1404;SDS011;697;51.114;6.542;2023-08-20T07:38:00;14.47;;;13.07;;
1404;SDS011;697;51.114;6.542;2023-08-20T07:40:27;17.20;;;11.13;;
1404;SDS011;697;51.114;6.542;2023-08-20T07:42:54;16.50;;;13.23;;
1404;SDS011;697;51.114;6.542;2023-08-20T07:45:21;17.10;;;13.87;;
1404;SDS011;697;51.114;6.542;2023-08-20T07:47:49;15.67;;;13.87;;
1404;SDS011;697;51.114;6.542;2023-08-20T07:50:16;16.53;;;13.47;;
1404;SDS011;697;51.114;6.542;2023-08-20T07:52:42;14.63;;;13.13;;
1404;SDS011;697;51.114;6.542;2023-08-20T07:55:09;14.00;;;12.50;;
1404;SDS011;697;51.114;6.542;2023-08-20T07:57:36;9.57;;;8.50;;
1404;SDS011;697;51.114;6.542;2023-08-20T08:00:03;11.40;;;8.70;;
1404;SDS011;697;51.114;6.542;2023-08-20T08:02:30;14.10;;;11.63;;
1404;SDS011;697;51.114;6.542;2023-08-20T08:04:58;17.37;;;13.43;;
1404;SDS011;697;51.114;6.542;2023-08-20T08:07:24;13.40;;;11.97;;
1404;SDS011;697;51.114;6.542;2023-08-20T08:09:51;13.23;;;11.50;;
1404;SDS011;697;51.114;6.542;2023-08-20T08:12:18;18.00;;;13.50;;
1404;SDS011;697;51.114;6.542;2023-08-20T08:14:45;18.27;;;15.57;;
1404;SDS011;697;51.114;6.542;2023-08-20T08:17:12;20.10;;;16.07;;
1404;SDS011;697;51.114;6.542;2023-08-20T08:19:38;16.37;;;13.53;;
1404;SDS011;697;51.114;6.542;2023-08-20T08:22:06;15.53;;;13.97;;
1404;SDS011;697;51.114;6.542;2023-08-20T08:24:33;15.57;;;13.47;;
1404;SDS011;697;51.114;6.542;2023-08-20T08:27:00;13.57;;;11.50;;
1404;SDS011;697;51.114;6.542;2023-08-20T08:29:26;10.00;;;9.00;;
1404;SDS011;697;51.114;6.542;2023-08-20T08:31:53;12.07;;;10.97;;
1404;SDS011;697;51.114;6.542;2023-08-20T08:34:20;8.73;;;7.83;;
1404;SDS011;697;51.114;6.542;2023-08-20T08:36:46;8.50;;;6.80;;
1404;SDS011;697;51.114;6.542;2023-08-20T08:39:14;13.87;;;11.70;;
1404;SDS011;697;51.114;6.542;2023-08-20T08:41:41;12.40;;;9.80;;
1404;SDS011;697;51.114;6.542;2023-08-20T08:44:08;10.23;;;8.90;;
1404;SDS011;697;51.114;6.542;2023-08-20T08:46:35;7.90;;;7.00;;
1404;SDS011;697;51.114;6.542;2023-08-20T08:49:04;8.20;;;7.40;;
1404;SDS011;697;51.114;6.542;2023-08-20T08:51:31;11.67;;;8.50;;
1404;SDS011;697;51.114;6.542;2023-08-20T08:53:59;9.53;;;6.97;;
1404;SDS011;697;51.114;6.542;2023-08-20T08:56:29;8.70;;;7.13;;
1404;SDS011;697;51.114;6.542;2023-08-20T08:58:55;7.47;;;6.50;;
1404;SDS011;697;51.114;6.542;2023-08-20T09:01:22;6.33;;;5.73;;
1404;SDS011;697;51.114;6.542;2023-08-20T09:03:49;7.70;;;7.07;;
1404;SDS011;697;51.114;6.542;2023-08-20T09:06:16;7.40;;;6.33;;
1404;SDS011;697;51.114;6.542;2023-08-20T09:08:42;5.27;;;4.87;;
1404;SDS011;697;51.114;6.542;2023-08-20T09:11:09;8.20;;;5.70;;
1404;SDS011;697;51.114;6.542;2023-08-20T09:13:37;6.67;;;6.07;;
1404;SDS011;697;51.114;6.542;2023-08-20T09:16:06;7.43;;;6.83;;
1404;SDS011;697;51.114;6.542;2023-08-20T09:18:33;7.23;;;6.53;;
1404;SDS011;697;51.114;6.542;2023-08-20T09:21:05;7.40;;;6.70;;
1404;SDS011;697;51.114;6.542;2023-08-20T09:23:33;8.73;;;7.93;;
1404;SDS011;697;51.114;6.542;2023-08-20T09:26:01;10.97;;;9.83;;
1404;SDS011;697;51.114;6.542;2023-08-20T09:28:29;8.50;;;7.70;;
1404;SDS011;697;51.114;6.542;2023-08-20T09:31:07;8.80;;;7.20;;
1404;SDS011;697;51.114;6.542;2023-08-20T09:33:34;8.00;;;7.20;;
1404;SDS011;697;51.114;6.542;2023-08-20T09:36:02;8.97;;;7.77;;
1404;SDS011;697;51.114;6.542;2023-08-20T09:38:29;5.70;;;5.20;;
1404;SDS011;697;51.114;6.542;2023-08-20T09:41:03;5.53;;;5.10;;
1404;SDS011;697;51.114;6.542;2023-08-20T09:43:31;5.93;;;5.43;;
1404;SDS011;697;51.114;6.542;2023-08-20T09:46:02;11.03;;;8.10;;
1404;SDS011;697;51.114;6.542;2023-08-20T09:48:33;10.83;;;6.70;;
1404;SDS011;697;51.114;6.542;2023-08-20T09:51:03;7.50;;;6.90;;
1404;SDS011;697;51.114;6.542;2023-08-20T09:53:33;8.07;;;7.37;;
1404;SDS011;697;51.114;6.542;2023-08-20T09:56:03;8.90;;;8.00;;
1404;SDS011;697;51.114;6.542;2023-08-20T09:58:35;7.10;;;6.40;;
1404;SDS011;697;51.114;6.542;2023-08-20T10:01:03;8.10;;;7.40;;
1404;SDS011;697;51.114;6.542;2023-08-20T10:03:30;9.80;;;7.93;;
1404;SDS011;697;51.114;6.542;2023-08-20T10:05:58;12.47;;;9.13;;
1404;SDS011;697;51.114;6.542;2023-08-20T10:08:27;13.27;;;8.70;;
1404;SDS011;697;51.114;6.542;2023-08-20T10:10:54;12.67;;;8.50;;
1404;SDS011;697;51.114;6.542;2023-08-20T10:13:22;10.60;;;7.50;;
1404;SDS011;697;51.114;6.542;2023-08-20T10:15:49;8.00;;;7.20;;
1404;SDS011;697;51.114;6.542;2023-08-20T10:18:18;11.80;;;8.00;;
1404;SDS011;697;51.114;6.542;2023-08-20T10:20:45;14.10;;;8.17;;
1404;SDS011;697;51.114;6.542;2023-08-20T10:23:13;10.80;;;7.70;;
1404;SDS011;697;51.114;6.542;2023-08-20T10:25:41;8.13;;;6.70;;
1404;SDS011;697;51.114;6.542;2023-08-20T10:28:13;9.17;;;6.93;;
1404;SDS011;697;51.114;6.542;2023-08-20T10:33:38;8.60;;;6.90;;
1404;SDS011;697;51.114;6.542;2023-08-20T10:36:14;8.77;;;7.87;;
1404;SDS011;697;51.114;6.542;2023-08-20T10:38:44;9.87;;;7.47;;
1404;SDS011;697;51.114;6.542;2023-08-20T10:41:11;7.53;;;6.70;;
1404;SDS011;697;51.114;6.542;2023-08-20T10:43:45;9.50;;;7.30;;
1404;SDS011;697;51.114;6.542;2023-08-20T10:46:14;7.93;;;5.97;;
1404;SDS011;697;51.114;6.542;2023-08-20T10:48:42;6.83;;;6.17;;
1404;SDS011;697;51.114;6.542;2023-08-20T10:51:10;7.50;;;6.80;;
1404;SDS011;697;51.114;6.542;2023-08-20T10:53:38;7.57;;;6.87;;
1404;SDS011;697;51.114;6.542;2023-08-20T10:56:13;7.47;;;6.73;;
1404;SDS011;697;51.114;6.542;2023-08-20T10:58:42;8.93;;;6.50;;
1404;SDS011;697;51.114;6.542;2023-08-20T11:01:13;6.57;;;5.90;;
1404;SDS011;697;51.114;6.542;2023-08-20T11:03:41;6.70;;;6.20;;
1404;SDS011;697;51.114;6.542;2023-08-20T11:06:08;6.53;;;5.93;;
1404;SDS011;697;51.114;6.542;2023-08-20T11:08:36;7.45;;;6.43;;
1404;SDS011;697;51.114;6.542;2023-08-20T11:11:03;5.50;;;5.10;;
1404;SDS011;697;51.114;6.542;2023-08-20T11:13:32;5.30;;;4.80;;
1404;SDS011;697;51.114;6.542;2023-08-20T11:15:59;6.57;;;5.47;;
1404;SDS011;697;51.114;6.542;2023-08-20T11:18:27;7.47;;;5.60;;
1404;SDS011;697;51.114;6.542;2023-08-20T11:20:54;6.00;;;5.40;;
1404;SDS011;697;51.114;6.542;2023-08-20T11:23:21;6.70;;;6.05;;
1404;SDS011;697;51.114;6.542;2023-08-20T11:25:48;7.05;;;6.43;;
1404;SDS011;697;51.114;6.542;2023-08-20T11:28:14;6.03;;;5.63;;
1404;SDS011;697;51.114;6.542;2023-08-20T11:30:42;7.78;;;6.97;;
1404;SDS011;697;51.114;6.542;2023-08-20T11:33:09;7.30;;;6.60;;
1404;SDS011;697;51.114;6.542;2023-08-20T11:35:36;7.60;;;6.90;;
1404;SDS011;697;51.114;6.542;2023-08-20T11:38:03;6.82;;;5.75;;
1404;SDS011;697;51.114;6.542;2023-08-20T11:40:32;7.07;;;6.00;;
1404;SDS011;697;51.114;6.542;2023-08-20T11:42:58;6.88;;;6.28;;
1404;SDS011;697;51.114;6.542;2023-08-20T11:45:26;10.70;;;6.50;;
1404;SDS011;697;51.114;6.542;2023-08-20T11:47:56;6.55;;;5.95;;
1404;SDS011;697;51.114;6.542;2023-08-20T11:50:23;7.80;;;6.97;;
1404;SDS011;697;51.114;6.542;2023-08-20T11:52:51;7.30;;;6.70;;
1404;SDS011;697;51.114;6.542;2023-08-20T11:55:21;6.15;;;5.65;;
1404;SDS011;697;51.114;6.542;2023-08-20T11:57:49;6.10;;;5.57;;
1404;SDS011;697;51.114;6.542;2023-08-20T12:00:23;7.05;;;6.32;;
1404;SDS011;697;51.114;6.542;2023-08-20T12:02:52;6.80;;;6.10;;
1404;SDS011;697;51.114;6.542;2023-08-20T12:05:21;7.10;;;5.63;;
1404;SDS011;697;51.114;6.542;2023-08-20T12:07:55;6.30;;;5.70;;
1404;SDS011;697;51.114;6.542;2023-08-20T12:10:23;8.23;;;7.45;;
1404;SDS011;697;51.114;6.542;2023-08-20T12:12:50;8.27;;;6.30;;
1404;SDS011;697;51.114;6.542;2023-08-20T12:15:18;6.35;;;5.80;;
1404;SDS011;697;51.114;6.542;2023-08-20T12:17:54;7.00;;;6.40;;
1404;SDS011;697;51.114;6.542;2023-08-20T12:20:27;8.65;;;7.68;;
1404;SDS011;697;51.114;6.542;2023-08-20T12:22:56;9.70;;;8.77;;
1404;SDS011;697;51.114;6.542;2023-08-20T12:25:24;10.63;;;9.73;;
1404;SDS011;697;51.114;6.542;2023-08-20T12:27:51;11.35;;;9.50;;
1404;SDS011;697;51.114;6.542;2023-08-20T12:30:18;10.02;;;9.10;;
1404;SDS011;697;51.114;6.542;2023-08-20T12:32:45;8.88;;;8.18;;
1404;SDS011;697;51.114;6.542;2023-08-20T12:35:12;10.32;;;9.30;;
1404;SDS011;697;51.114;6.542;2023-08-20T12:37:40;11.43;;;10.50;;
1404;SDS011;697;51.114;6.542;2023-08-20T12:40:07;8.68;;;7.93;;
1404;SDS011;697;51.114;6.542;2023-08-20T12:42:37;7.65;;;6.95;;
1404;SDS011;697;51.114;6.542;2023-08-20T12:45:04;7.53;;;6.82;;
1404;SDS011;697;51.114;6.542;2023-08-20T12:47:32;7.10;;;6.57;;
1404;SDS011;697;51.114;6.542;2023-08-20T12:49:58;7.75;;;7.15;;
1404;SDS011;697;51.114;6.542;2023-08-20T12:52:25;7.57;;;6.05;;
1404;SDS011;697;51.114;6.542;2023-08-20T12:54:53;6.32;;;5.72;;
1404;SDS011;697;51.114;6.542;2023-08-20T12:57:20;6.30;;;5.70;;
1404;SDS011;697;51.114;6.542;2023-08-20T12:59:47;6.70;;;6.10;;
1404;SDS011;697;51.114;6.542;2023-08-20T13:02:13;5.68;;;5.13;;
1404;SDS011;697;51.114;6.542;2023-08-20T13:04:40;6.40;;;5.78;;
1404;SDS011;697;51.114;6.542;2023-08-20T13:07:07;7.82;;;6.25;;
1404;SDS011;697;51.114;6.542;2023-08-20T13:09:35;5.82;;;5.32;;
1404;SDS011;697;51.114;6.542;2023-08-20T13:12:03;7.07;;;6.03;;
1404;SDS011;697;51.114;6.542;2023-08-20T13:14:34;7.53;;;6.32;;
1404;SDS011;697;51.114;6.542;2023-08-20T13:17:01;6.63;;;6.05;;
1404;SDS011;697;51.114;6.542;2023-08-20T13:19:28;6.78;;;6.28;;
1404;SDS011;697;51.114;6.542;2023-08-20T13:21:55;6.47;;;5.82;;
1404;SDS011;697;51.114;6.542;2023-08-20T13:24:22;5.85;;;5.35;;
1404;SDS011;697;51.114;6.542;2023-08-20T13:26:48;8.25;;;5.07;;
1404;SDS011;697;51.114;6.542;2023-08-20T13:29:17;5.32;;;4.82;;
1404;SDS011;697;51.114;6.542;2023-08-20T13:31:44;5.45;;;4.95;;
1404;SDS011;697;51.114;6.542;2023-08-20T13:34:10;5.45;;;4.95;;
1404;SDS011;697;51.114;6.542;2023-08-20T13:36:37;6.10;;;5.35;;
1404;SDS011;697;51.114;6.542;2023-08-20T13:39:04;7.97;;;4.72;;
1404;SDS011;697;51.114;6.542;2023-08-20T13:41:30;4.85;;;4.45;;
1404;SDS011;697;51.114;6.542;2023-08-20T13:43:57;6.05;;;4.85;;
1404;SDS011;697;51.114;6.542;2023-08-20T13:46:25;5.68;;;4.40;;
1404;SDS011;697;51.114;6.542;2023-08-20T13:48:52;5.28;;;4.15;;
1404;SDS011;697;51.114;6.542;2023-08-20T13:51:19;4.68;;;4.20;;
1404;SDS011;697;51.114;6.542;2023-08-20T13:53:45;4.63;;;4.13;;
1404;SDS011;697;51.114;6.542;2023-08-20T13:56:12;4.55;;;4.15;;
1404;SDS011;697;51.114;6.542;2023-08-20T13:58:39;4.32;;;3.92;;
1404;SDS011;697;51.114;6.542;2023-08-20T14:01:05;4.05;;;3.47;;
1404;SDS011;697;51.114;6.542;2023-08-20T14:03:33;7.07;;;3.50;;
1404;SDS011;697;51.114;6.542;2023-08-20T14:06:00;4.25;;;3.85;;
1404;SDS011;697;51.114;6.542;2023-08-20T14:08:28;3.67;;;3.38;;
1404;SDS011;697;51.114;6.542;2023-08-20T14:10:54;4.47;;;3.50;;
1404;SDS011;697;51.114;6.542;2023-08-20T14:13:21;5.32;;;3.15;;
1404;SDS011;697;51.114;6.542;2023-08-20T14:15:48;3.83;;;3.40;;
1404;SDS011;697;51.114;6.542;2023-08-20T14:18:15;4.20;;;3.08;;
1404;SDS011;697;51.114;6.542;2023-08-20T14:20:43;2.88;;;2.67;;
1404;SDS011;697;51.114;6.542;2023-08-20T14:23:09;3.95;;;3.15;;
1404;SDS011;697;51.114;6.542;2023-08-20T14:25:36;3.40;;;3.10;;
1404;SDS011;697;51.114;6.542;2023-08-20T14:28:05;3.85;;;3.20;;
1404;SDS011;697;51.114;6.542;2023-08-20T14:30:35;4.63;;;2.85;;
1404;SDS011;697;51.114;6.542;2023-08-20T14:33:02;3.55;;;3.22;;
1404;SDS011;697;51.114;6.542;2023-08-20T14:35:29;2.95;;;2.72;;
1404;SDS011;697;51.114;6.542;2023-08-20T14:37:57;2.50;;;2.30;;
1404;SDS011;697;51.114;6.542;2023-08-20T14:40:24;4.15;;;3.05;;
1404;SDS011;697;51.114;6.542;2023-08-20T14:42:50;3.17;;;2.88;;
1404;SDS011;697;51.114;6.542;2023-08-20T14:45:17;3.72;;;2.67;;
1404;SDS011;697;51.114;6.542;2023-08-20T14:47:44;4.18;;;2.88;;
1404;SDS011;697;51.114;6.542;2023-08-20T14:50:10;3.17;;;2.65;;
1404;SDS011;697;51.114;6.542;2023-08-20T14:52:37;2.67;;;2.47;;
1404;SDS011;697;51.114;6.542;2023-08-20T14:55:06;4.55;;;2.80;;
1404;SDS011;697;51.114;6.542;2023-08-20T14:57:34;3.35;;;2.83;;
1404;SDS011;697;51.114;6.542;2023-08-20T15:00:03;3.03;;;2.65;;
1404;SDS011;697;51.114;6.542;2023-08-20T15:02:33;2.85;;;2.65;;
1404;SDS011;697;51.114;6.542;2023-08-20T15:05:00;3.50;;;2.38;;
1404;SDS011;697;51.114;6.542;2023-08-20T15:07:26;2.80;;;2.17;;
1404;SDS011;697;51.114;6.542;2023-08-20T15:09:53;3.55;;;2.80;;
1404;SDS011;697;51.114;6.542;2023-08-20T15:12:21;3.55;;;2.97;;
1404;SDS011;697;51.114;6.542;2023-08-20T15:14:48;4.35;;;2.70;;
1404;SDS011;697;51.114;6.542;2023-08-20T15:17:14;3.38;;;2.80;;
1404;SDS011;697;51.114;6.542;2023-08-20T15:19:41;5.20;;;2.90;;
1404;SDS011;697;51.114;6.542;2023-08-20T15:22:08;2.88;;;2.60;;